sensor_id;sensor_type;location;lat;lon;timestamp;temperature;humidity
17066;DHT22;23120;52.336;21.182;2022-07-29T00:00:11;15.40;66.60
17066;DHT22;23120;52.336;21.182;2022-07-29T00:02:38;15.40;66.60
17066;DHT22;23120;52.336;21.182;2022-07-29T00:05:05;15.40;66.80
17066;DHT22;23120;52.336;21.182;2022-07-29T00:07:33;15.30;66.90
17066;DHT22;23120;52.336;21.182;2022-07-29T00:10:00;15.30;67.20
17066;DHT22;23120;52.336;21.182;2022-07-29T00:12:27;15.20;67.10
17066;DHT22;23120;52.336;21.182;2022-07-29T00:14:55;15.20;67.60
17066;DHT22;23120;52.336;21.182;2022-07-29T00:17:22;15.20;67.40
17066;DHT22;23120;52.336;21.182;2022-07-29T00:19:49;15.20;67.20
17066;DHT22;23120;52.336;21.182;2022-07-29T00:22:15;15.20;67.20
17066;DHT22;23120;52.336;21.182;2022-07-29T00:24:44;15.10;67.20
17066;DHT22;23120;52.336;21.182;2022-07-29T00:27:11;15.10;67.30
17066;DHT22;23120;52.336;21.182;2022-07-29T00:29:37;15.10;67.10
17066;DHT22;23120;52.336;21.182;2022-07-29T00:32:05;15.00;67.00
17066;DHT22;23120;52.336;21.182;2022-07-29T00:34:32;15.00;67.50
17066;DHT22;23120;52.336;21.182;2022-07-29T00:37:16;15.00;67.60
17066;DHT22;23120;52.336;21.182;2022-07-29T00:39:44;15.00;67.60
17066;DHT22;23120;52.336;21.182;2022-07-29T00:42:11;14.90;67.50
17066;DHT22;23120;52.336;21.182;2022-07-29T00:44:38;14.90;67.50
17066;DHT22;23120;52.336;21.182;2022-07-29T00:47:06;14.90;67.50
17066;DHT22;23120;52.336;21.182;2022-07-29T00:49:33;14.90;67.50
17066;DHT22;23120;52.336;21.182;2022-07-29T00:52:01;14.80;67.40
17066;DHT22;23120;52.336;21.182;2022-07-29T00:54:28;14.80;68.00
17066;DHT22;23120;52.336;21.182;2022-07-29T00:56:58;14.80;68.20
17066;DHT22;23120;52.336;21.182;2022-07-29T00:59:25;14.80;67.80
17066;DHT22;23120;52.336;21.182;2022-07-29T01:01:52;14.70;67.40
17066;DHT22;23120;52.336;21.182;2022-07-29T01:04:19;14.70;67.70
17066;DHT22;23120;52.336;21.182;2022-07-29T01:06:47;14.70;68.00
17066;DHT22;23120;52.336;21.182;2022-07-29T01:09:14;14.70;68.40
17066;DHT22;23120;52.336;21.182;2022-07-29T01:11:42;14.60;68.20
17066;DHT22;23120;52.336;21.182;2022-07-29T01:14:12;14.60;68.20
17066;DHT22;23120;52.336;21.182;2022-07-29T01:16:50;14.60;68.50
17066;DHT22;23120;52.336;21.182;2022-07-29T01:19:33;14.50;68.70
17066;DHT22;23120;52.336;21.182;2022-07-29T01:22:13;14.50;69.30
17066;DHT22;23120;52.336;21.182;2022-07-29T01:25:17;14.50;68.80
17066;DHT22;23120;52.336;21.182;2022-07-29T01:28:01;14.40;68.60
17066;DHT22;23120;52.336;21.182;2022-07-29T01:30:32;14.40;68.50
17066;DHT22;23120;52.336;21.182;2022-07-29T01:33:03;14.40;68.40
17066;DHT22;23120;52.336;21.182;2022-07-29T01:35:36;14.40;68.50
17066;DHT22;23120;52.336;21.182;2022-07-29T01:38:09;14.40;68.90
17066;DHT22;23120;52.336;21.182;2022-07-29T01:40:42;14.30;68.70
17066;DHT22;23120;52.336;21.182;2022-07-29T01:43:12;14.30;69.00
17066;DHT22;23120;52.336;21.182;2022-07-29T01:45:47;14.30;69.10
17066;DHT22;23120;52.336;21.182;2022-07-29T01:48:17;14.30;69.10
17066;DHT22;23120;52.336;21.182;2022-07-29T01:50:48;14.20;68.80
17066;DHT22;23120;52.336;21.182;2022-07-29T01:53:28;14.20;68.60
17066;DHT22;23120;52.336;21.182;2022-07-29T01:55:57;14.20;68.80
17066;DHT22;23120;52.336;21.182;2022-07-29T01:58:27;14.20;68.70
17066;DHT22;23120;52.336;21.182;2022-07-29T02:00:57;14.10;68.80
17066;DHT22;23120;52.336;21.182;2022-07-29T02:03:25;14.10;69.60
17066;DHT22;23120;52.336;21.182;2022-07-29T02:05:54;14.10;68.90
17066;DHT22;23120;52.336;21.182;2022-07-29T02:08:23;14.10;69.30
17066;DHT22;23120;52.336;21.182;2022-07-29T02:10:51;14.10;69.30
17066;DHT22;23120;52.336;21.182;2022-07-29T02:13:20;14.00;69.30
17066;DHT22;23120;52.336;21.182;2022-07-29T02:15:50;14.00;69.30
17066;DHT22;23120;52.336;21.182;2022-07-29T02:18:20;14.00;69.50
17066;DHT22;23120;52.336;21.182;2022-07-29T02:20:52;14.00;69.70
17066;DHT22;23120;52.336;21.182;2022-07-29T02:23:21;13.90;69.70
17066;DHT22;23120;52.336;21.182;2022-07-29T02:25:49;13.90;70.00
17066;DHT22;23120;52.336;21.182;2022-07-29T02:28:19;13.90;70.20
17066;DHT22;23120;52.336;21.182;2022-07-29T02:30:47;13.90;70.00
17066;DHT22;23120;52.336;21.182;2022-07-29T02:33:16;13.80;69.90
17066;DHT22;23120;52.336;21.182;2022-07-29T02:35:46;13.80;69.80
17066;DHT22;23120;52.336;21.182;2022-07-29T02:38:15;13.80;69.80
17066;DHT22;23120;52.336;21.182;2022-07-29T02:41:04;13.80;70.00
17066;DHT22;23120;52.336;21.182;2022-07-29T02:43:34;13.70;69.70
17066;DHT22;23120;52.336;21.182;2022-07-29T02:46:04;13.70;70.10
17066;DHT22;23120;52.336;21.182;2022-07-29T02:48:36;13.70;70.60
17066;DHT22;23120;52.336;21.182;2022-07-29T02:51:13;13.70;71.10
17066;DHT22;23120;52.336;21.182;2022-07-29T02:53:44;13.70;70.50
17066;DHT22;23120;52.336;21.182;2022-07-29T02:56:16;13.70;70.70
17066;DHT22;23120;52.336;21.182;2022-07-29T02:58:49;13.60;70.80
17066;DHT22;23120;52.336;21.182;2022-07-29T03:01:21;13.70;70.70
17066;DHT22;23120;52.336;21.182;2022-07-29T03:03:49;13.60;70.60
17066;DHT22;23120;52.336;21.182;2022-07-29T03:06:21;13.60;70.50
17066;DHT22;23120;52.336;21.182;2022-07-29T03:08:49;13.60;71.00
17066;DHT22;23120;52.336;21.182;2022-07-29T03:11:17;13.50;71.00
17066;DHT22;23120;52.336;21.182;2022-07-29T03:13:45;13.50;70.80
17066;DHT22;23120;52.336;21.182;2022-07-29T03:16:12;13.50;70.80
17066;DHT22;23120;52.336;21.182;2022-07-29T03:18:39;13.50;70.90
17066;DHT22;23120;52.336;21.182;2022-07-29T03:21:07;13.50;70.80
17066;DHT22;23120;52.336;21.182;2022-07-29T03:23:36;13.50;70.60
17066;DHT22;23120;52.336;21.182;2022-07-29T03:26:02;13.50;70.80
17066;DHT22;23120;52.336;21.182;2022-07-29T03:28:29;13.40;70.50
17066;DHT22;23120;52.336;21.182;2022-07-29T03:30:56;13.40;70.40
17066;DHT22;23120;52.336;21.182;2022-07-29T03:33:23;13.40;70.50
17066;DHT22;23120;52.336;21.182;2022-07-29T03:35:50;13.40;70.70
17066;DHT22;23120;52.336;21.182;2022-07-29T03:38:16;13.40;70.70
17066;DHT22;23120;52.336;21.182;2022-07-29T03:40:50;13.40;70.80
17066;DHT22;23120;52.336;21.182;2022-07-29T03:43:18;13.40;71.10
17066;DHT22;23120;52.336;21.182;2022-07-29T03:45:47;13.40;71.10
17066;DHT22;23120;52.336;21.182;2022-07-29T03:48:19;13.40;71.50
17066;DHT22;23120;52.336;21.182;2022-07-29T03:50:46;13.40;71.60
17066;DHT22;23120;52.336;21.182;2022-07-29T03:53:13;13.40;72.50
17066;DHT22;23120;52.336;21.182;2022-07-29T03:55:43;13.40;71.90
17066;DHT22;23120;52.336;21.182;2022-07-29T03:58:13;13.40;71.80
17066;DHT22;23120;52.336;21.182;2022-07-29T04:00:42;13.40;71.70
17066;DHT22;23120;52.336;21.182;2022-07-29T04:03:09;13.40;72.40
17066;DHT22;23120;52.336;21.182;2022-07-29T04:05:36;13.30;72.50
17066;DHT22;23120;52.336;21.182;2022-07-29T04:08:04;13.40;73.00
17066;DHT22;23120;52.336;21.182;2022-07-29T04:10:31;13.40;73.20
17066;DHT22;23120;52.336;21.182;2022-07-29T04:12:58;13.40;73.40
17066;DHT22;23120;52.336;21.182;2022-07-29T04:15:26;13.40;73.80
17066;DHT22;23120;52.336;21.182;2022-07-29T04:17:54;13.40;74.10
17066;DHT22;23120;52.336;21.182;2022-07-29T04:20:21;13.50;74.70
17066;DHT22;23120;52.336;21.182;2022-07-29T04:22:48;13.50;74.30
17066;DHT22;23120;52.336;21.182;2022-07-29T04:25:15;13.50;74.60
17066;DHT22;23120;52.336;21.182;2022-07-29T04:27:42;13.60;75.60
17066;DHT22;23120;52.336;21.182;2022-07-29T04:30:22;13.60;75.20
17066;DHT22;23120;52.336;21.182;2022-07-29T04:32:50;13.60;75.60
17066;DHT22;23120;52.336;21.182;2022-07-29T04:35:17;13.70;76.30
17066;DHT22;23120;52.336;21.182;2022-07-29T04:37:44;13.70;76.80
17066;DHT22;23120;52.336;21.182;2022-07-29T04:40:11;13.70;76.80
17066;DHT22;23120;52.336;21.182;2022-07-29T04:42:38;13.80;76.70
17066;DHT22;23120;52.336;21.182;2022-07-29T04:45:06;13.80;77.10
17066;DHT22;23120;52.336;21.182;2022-07-29T04:47:33;13.90;77.50
17066;DHT22;23120;52.336;21.182;2022-07-29T04:50:01;13.90;77.50
17066;DHT22;23120;52.336;21.182;2022-07-29T04:52:28;13.90;77.50
17066;DHT22;23120;52.336;21.182;2022-07-29T04:54:55;14.00;78.80
17066;DHT22;23120;52.336;21.182;2022-07-29T04:57:21;14.10;78.60
17066;DHT22;23120;52.336;21.182;2022-07-29T04:59:48;14.10;77.70
17066;DHT22;23120;52.336;21.182;2022-07-29T05:02:15;14.10;78.70
17066;DHT22;23120;52.336;21.182;2022-07-29T05:04:42;14.20;80.00
17066;DHT22;23120;52.336;21.182;2022-07-29T05:07:10;14.30;80.10
17066;DHT22;23120;52.336;21.182;2022-07-29T05:09:37;14.30;80.40
17066;DHT22;23120;52.336;21.182;2022-07-29T05:12:04;14.40;80.60
17066;DHT22;23120;52.336;21.182;2022-07-29T05:14:31;14.50;80.70
17066;DHT22;23120;52.336;21.182;2022-07-29T05:16:58;14.60;80.80
17066;DHT22;23120;52.336;21.182;2022-07-29T05:19:25;14.70;80.80
17066;DHT22;23120;52.336;21.182;2022-07-29T05:21:51;14.90;81.70
17066;DHT22;23120;52.336;21.182;2022-07-29T05:24:19;15.10;81.20
17066;DHT22;23120;52.336;21.182;2022-07-29T05:26:46;15.30;81.70
17066;DHT22;23120;52.336;21.182;2022-07-29T05:29:13;15.50;80.80
17066;DHT22;23120;52.336;21.182;2022-07-29T05:31:40;15.70;80.60
17066;DHT22;23120;52.336;21.182;2022-07-29T05:34:06;15.90;79.60
17066;DHT22;23120;52.336;21.182;2022-07-29T05:36:33;16.10;79.80
17066;DHT22;23120;52.336;21.182;2022-07-29T05:39:00;16.30;80.00
17066;DHT22;23120;52.336;21.182;2022-07-29T05:41:31;16.60;79.60
17066;DHT22;23120;52.336;21.182;2022-07-29T05:43:58;16.80;79.30
17066;DHT22;23120;52.336;21.182;2022-07-29T05:46:25;17.00;79.50
17066;DHT22;23120;52.336;21.182;2022-07-29T05:48:52;17.30;78.30
17066;DHT22;23120;52.336;21.182;2022-07-29T05:51:19;17.50;77.80
17066;DHT22;23120;52.336;21.182;2022-07-29T05:53:46;17.70;77.60
17066;DHT22;23120;52.336;21.182;2022-07-29T05:56:13;17.90;77.20
17066;DHT22;23120;52.336;21.182;2022-07-29T05:58:41;18.10;76.40
17066;DHT22;23120;52.336;21.182;2022-07-29T06:01:08;18.20;76.00
17066;DHT22;23120;52.336;21.182;2022-07-29T06:03:38;18.40;75.90
17066;DHT22;23120;52.336;21.182;2022-07-29T06:06:06;18.60;75.60
17066;DHT22;23120;52.336;21.182;2022-07-29T06:08:33;18.80;75.20
17066;DHT22;23120;52.336;21.182;2022-07-29T06:11:02;19.00;74.70
17066;DHT22;23120;52.336;21.182;2022-07-29T06:13:29;19.10;74.90
17066;DHT22;23120;52.336;21.182;2022-07-29T06:15:57;19.30;73.90
17066;DHT22;23120;52.336;21.182;2022-07-29T06:18:24;19.40;73.10
17066;DHT22;23120;52.336;21.182;2022-07-29T06:20:51;19.50;72.90
17066;DHT22;23120;52.336;21.182;2022-07-29T06:23:18;19.70;72.40
17066;DHT22;23120;52.336;21.182;2022-07-29T06:25:46;19.80;72.50
17066;DHT22;23120;52.336;21.182;2022-07-29T06:28:14;20.00;72.40
17066;DHT22;23120;52.336;21.182;2022-07-29T06:30:40;20.10;72.10
17066;DHT22;23120;52.336;21.182;2022-07-29T06:33:08;20.20;71.50
17066;DHT22;23120;52.336;21.182;2022-07-29T06:35:35;20.40;71.20
17066;DHT22;23120;52.336;21.182;2022-07-29T06:38:04;20.50;71.10
17066;DHT22;23120;52.336;21.182;2022-07-29T06:40:31;20.60;70.60
17066;DHT22;23120;52.336;21.182;2022-07-29T06:43:15;20.80;70.70
17066;DHT22;23120;52.336;21.182;2022-07-29T06:45:42;20.90;70.00
17066;DHT22;23120;52.336;21.182;2022-07-29T06:48:10;21.00;69.80
17066;DHT22;23120;52.336;21.182;2022-07-29T06:50:37;21.10;69.20
17066;DHT22;23120;52.336;21.182;2022-07-29T06:53:05;21.30;69.20
17066;DHT22;23120;52.336;21.182;2022-07-29T06:55:32;21.40;69.10
17066;DHT22;23120;52.336;21.182;2022-07-29T06:57:58;21.50;68.60
17066;DHT22;23120;52.336;21.182;2022-07-29T07:00:25;21.70;68.50
17066;DHT22;23120;52.336;21.182;2022-07-29T07:02:52;21.70;68.00
17066;DHT22;23120;52.336;21.182;2022-07-29T07:05:20;21.80;67.90
17066;DHT22;23120;52.336;21.182;2022-07-29T07:07:47;21.90;67.70
17066;DHT22;23120;52.336;21.182;2022-07-29T07:10:16;22.00;67.60
17066;DHT22;23120;52.336;21.182;2022-07-29T07:12:42;22.00;67.30
17066;DHT22;23120;52.336;21.182;2022-07-29T07:15:10;22.10;67.10
17066;DHT22;23120;52.336;21.182;2022-07-29T07:17:36;22.20;67.00
17066;DHT22;23120;52.336;21.182;2022-07-29T07:20:04;22.30;67.20
17066;DHT22;23120;52.336;21.182;2022-07-29T07:22:33;22.40;66.90
17066;DHT22;23120;52.336;21.182;2022-07-29T07:25:00;22.50;66.70
17066;DHT22;23120;52.336;21.182;2022-07-29T07:27:26;22.50;66.60
17066;DHT22;23120;52.336;21.182;2022-07-29T07:29:53;22.60;66.30
17066;DHT22;23120;52.336;21.182;2022-07-29T07:32:20;22.60;66.10
17066;DHT22;23120;52.336;21.182;2022-07-29T07:34:47;22.70;65.90
17066;DHT22;23120;52.336;21.182;2022-07-29T07:37:14;22.80;65.90
17066;DHT22;23120;52.336;21.182;2022-07-29T07:39:42;22.90;65.90
17066;DHT22;23120;52.336;21.182;2022-07-29T07:42:09;23.00;65.20
17066;DHT22;23120;52.336;21.182;2022-07-29T07:44:38;23.00;65.00
17066;DHT22;23120;52.336;21.182;2022-07-29T07:47:05;23.10;65.20
17066;DHT22;23120;52.336;21.182;2022-07-29T07:49:32;23.20;65.40
17066;DHT22;23120;52.336;21.182;2022-07-29T07:51:59;23.30;64.60
17066;DHT22;23120;52.336;21.182;2022-07-29T07:54:26;23.40;64.70
17066;DHT22;23120;52.336;21.182;2022-07-29T07:56:54;23.40;65.40
17066;DHT22;23120;52.336;21.182;2022-07-29T07:59:20;23.60;64.40
17066;DHT22;23120;52.336;21.182;2022-07-29T08:01:47;23.70;64.30
17066;DHT22;23120;52.336;21.182;2022-07-29T08:04:14;23.80;64.10
17066;DHT22;23120;52.336;21.182;2022-07-29T08:06:41;23.80;64.00
17066;DHT22;23120;52.336;21.182;2022-07-29T08:09:08;23.90;64.10
17066;DHT22;23120;52.336;21.182;2022-07-29T08:11:35;24.00;64.10
17066;DHT22;23120;52.336;21.182;2022-07-29T08:14:03;24.00;64.00
17066;DHT22;23120;52.336;21.182;2022-07-29T08:16:30;24.20;63.80
17066;DHT22;23120;52.336;21.182;2022-07-29T08:18:57;24.20;63.30
17066;DHT22;23120;52.336;21.182;2022-07-29T08:21:24;24.30;63.20
17066;DHT22;23120;52.336;21.182;2022-07-29T08:23:51;24.50;63.30
17066;DHT22;23120;52.336;21.182;2022-07-29T08:26:39;24.60;63.50
17066;DHT22;23120;52.336;21.182;2022-07-29T08:29:07;24.70;62.90
17066;DHT22;23120;52.336;21.182;2022-07-29T08:31:34;24.90;62.20
17066;DHT22;23120;52.336;21.182;2022-07-29T08:34:01;24.90;62.60
17066;DHT22;23120;52.336;21.182;2022-07-29T08:36:29;25.00;62.30
17066;DHT22;23120;52.336;21.182;2022-07-29T08:38:56;25.00;62.50
17066;DHT22;23120;52.336;21.182;2022-07-29T08:41:23;25.20;61.80
17066;DHT22;23120;52.336;21.182;2022-07-29T08:43:51;25.20;61.40
17066;DHT22;23120;52.336;21.182;2022-07-29T08:46:20;25.30;61.90
17066;DHT22;23120;52.336;21.182;2022-07-29T08:48:47;25.40;61.60
17066;DHT22;23120;52.336;21.182;2022-07-29T08:51:16;25.50;61.00
17066;DHT22;23120;52.336;21.182;2022-07-29T08:53:44;25.50;60.80
17066;DHT22;23120;52.336;21.182;2022-07-29T08:56:12;25.60;60.90
17066;DHT22;23120;52.336;21.182;2022-07-29T08:58:39;25.70;60.80
17066;DHT22;23120;52.336;21.182;2022-07-29T09:01:07;25.80;60.50
17066;DHT22;23120;52.336;21.182;2022-07-29T09:03:36;25.90;60.20
17066;DHT22;23120;52.336;21.182;2022-07-29T09:06:05;25.90;59.50
17066;DHT22;23120;52.336;21.182;2022-07-29T09:08:33;26.00;58.70
17066;DHT22;23120;52.336;21.182;2022-07-29T09:11:01;26.10;57.60
17066;DHT22;23120;52.336;21.182;2022-07-29T09:13:28;26.20;58.40
17066;DHT22;23120;52.336;21.182;2022-07-29T09:15:55;26.30;58.10
17066;DHT22;23120;52.336;21.182;2022-07-29T09:18:37;26.30;57.10
17066;DHT22;23120;52.336;21.182;2022-07-29T09:21:06;26.40;57.50
17066;DHT22;23120;52.336;21.182;2022-07-29T09:24:00;26.60;57.00
17066;DHT22;23120;52.336;21.182;2022-07-29T09:26:28;26.70;55.70
17066;DHT22;23120;52.336;21.182;2022-07-29T09:28:56;26.70;55.40
17066;DHT22;23120;52.336;21.182;2022-07-29T09:31:32;26.90;55.70
17066;DHT22;23120;52.336;21.182;2022-07-29T09:34:01;26.90;56.10
17066;DHT22;23120;52.336;21.182;2022-07-29T09:36:28;27.00;55.30
17066;DHT22;23120;52.336;21.182;2022-07-29T09:38:58;27.10;55.60
17066;DHT22;23120;52.336;21.182;2022-07-29T09:41:26;27.10;55.20
17066;DHT22;23120;52.336;21.182;2022-07-29T09:43:54;27.20;55.00
17066;DHT22;23120;52.336;21.182;2022-07-29T09:46:21;27.30;55.30
17066;DHT22;23120;52.336;21.182;2022-07-29T09:49:08;27.30;54.20
17066;DHT22;23120;52.336;21.182;2022-07-29T09:51:35;27.30;55.10
17066;DHT22;23120;52.336;21.182;2022-07-29T09:54:21;27.40;55.00
17066;DHT22;23120;52.336;21.182;2022-07-29T09:56:48;27.50;53.80
17066;DHT22;23120;52.336;21.182;2022-07-29T09:59:15;27.60;54.90
17066;DHT22;23120;52.336;21.182;2022-07-29T10:01:42;27.70;54.30
17066;DHT22;23120;52.336;21.182;2022-07-29T10:04:10;27.80;52.50
17066;DHT22;23120;52.336;21.182;2022-07-29T10:06:55;27.90;52.30
17066;DHT22;23120;52.336;21.182;2022-07-29T10:09:23;27.90;52.30
17066;DHT22;23120;52.336;21.182;2022-07-29T10:12:06;28.00;53.30
17066;DHT22;23120;52.336;21.182;2022-07-29T10:14:35;28.10;52.80
17066;DHT22;23120;52.336;21.182;2022-07-29T10:17:03;28.20;52.80
17066;DHT22;23120;52.336;21.182;2022-07-29T10:19:32;28.20;51.80
17066;DHT22;23120;52.336;21.182;2022-07-29T10:22:01;28.30;52.50
17066;DHT22;23120;52.336;21.182;2022-07-29T10:24:30;28.40;52.60
17066;DHT22;23120;52.336;21.182;2022-07-29T10:26:59;28.50;53.10
17066;DHT22;23120;52.336;21.182;2022-07-29T10:29:26;28.60;52.90
17066;DHT22;23120;52.336;21.182;2022-07-29T10:32:11;28.70;51.80
17066;DHT22;23120;52.336;21.182;2022-07-29T10:34:57;28.80;52.60
17066;DHT22;23120;52.336;21.182;2022-07-29T10:37:33;28.90;51.90
17066;DHT22;23120;52.336;21.182;2022-07-29T10:40:09;29.00;52.60
17066;DHT22;23120;52.336;21.182;2022-07-29T10:42:52;29.10;53.30
17066;DHT22;23120;52.336;21.182;2022-07-29T10:45:20;29.10;51.40
17066;DHT22;23120;52.336;21.182;2022-07-29T10:47:48;29.20;50.70
17066;DHT22;23120;52.336;21.182;2022-07-29T10:50:16;29.10;51.00
17066;DHT22;23120;52.336;21.182;2022-07-29T10:52:55;29.20;51.90
17066;DHT22;23120;52.336;21.182;2022-07-29T10:55:33;29.30;52.00
17066;DHT22;23120;52.336;21.182;2022-07-29T10:58:13;29.30;50.40
17066;DHT22;23120;52.336;21.182;2022-07-29T11:00:40;29.40;51.30
17066;DHT22;23120;52.336;21.182;2022-07-29T11:03:07;29.50;52.00
17066;DHT22;23120;52.336;21.182;2022-07-29T11:05:53;29.60;52.00
17066;DHT22;23120;52.336;21.182;2022-07-29T11:08:22;29.70;52.00
17066;DHT22;23120;52.336;21.182;2022-07-29T11:10:52;29.70;51.60
17066;DHT22;23120;52.336;21.182;2022-07-29T11:13:45;29.90;51.60
17066;DHT22;23120;52.336;21.182;2022-07-29T11:16:13;29.90;51.70
17066;DHT22;23120;52.336;21.182;2022-07-29T11:21:43;30.10;51.90
17066;DHT22;23120;52.336;21.182;2022-07-29T11:24:13;30.20;51.40
17066;DHT22;23120;52.336;21.182;2022-07-29T11:26:40;30.20;50.70
17066;DHT22;23120;52.336;21.182;2022-07-29T11:29:17;30.20;51.20
17066;DHT22;23120;52.336;21.182;2022-07-29T11:31:47;30.30;51.40
17066;DHT22;23120;52.336;21.182;2022-07-29T11:34:19;30.40;50.60
17066;DHT22;23120;52.336;21.182;2022-07-29T11:37:19;30.30;49.70
17066;DHT22;23120;52.336;21.182;2022-07-29T11:42:44;30.40;50.50
17066;DHT22;23120;52.336;21.182;2022-07-29T11:45:20;30.40;49.30
17066;DHT22;23120;52.336;21.182;2022-07-29T11:47:49;30.40;50.40
17066;DHT22;23120;52.336;21.182;2022-07-29T11:50:17;30.40;51.00
17066;DHT22;23120;52.336;21.182;2022-07-29T11:52:47;30.40;50.70
17066;DHT22;23120;52.336;21.182;2022-07-29T11:55:16;30.50;50.10
17066;DHT22;23120;52.336;21.182;2022-07-29T11:57:47;30.40;49.30
17066;DHT22;23120;52.336;21.182;2022-07-29T12:00:28;30.50;48.80
17066;DHT22;23120;52.336;21.182;2022-07-29T12:02:57;30.60;50.00
17066;DHT22;23120;52.336;21.182;2022-07-29T12:05:32;30.60;49.40
17066;DHT22;23120;52.336;21.182;2022-07-29T12:08:07;30.60;50.60
17066;DHT22;23120;52.336;21.182;2022-07-29T12:10:34;30.70;50.00
17066;DHT22;23120;52.336;21.182;2022-07-29T12:13:01;30.80;49.50
17066;DHT22;23120;52.336;21.182;2022-07-29T12:15:28;30.80;49.50
17066;DHT22;23120;52.336;21.182;2022-07-29T12:17:55;30.80;49.50
17066;DHT22;23120;52.336;21.182;2022-07-29T12:20:24;31.00;49.70
17066;DHT22;23120;52.336;21.182;2022-07-29T12:22:51;31.10;49.20
17066;DHT22;23120;52.336;21.182;2022-07-29T12:25:22;31.20;48.80
17066;DHT22;23120;52.336;21.182;2022-07-29T12:27:58;31.20;48.70
17066;DHT22;23120;52.336;21.182;2022-07-29T12:30:39;31.20;48.00
17066;DHT22;23120;52.336;21.182;2022-07-29T12:33:17;31.20;47.40
17066;DHT22;23120;52.336;21.182;2022-07-29T12:35:46;31.10;48.00
17066;DHT22;23120;52.336;21.182;2022-07-29T12:38:14;31.10;48.20
17066;DHT22;23120;52.336;21.182;2022-07-29T12:40:43;31.10;48.60
17066;DHT22;23120;52.336;21.182;2022-07-29T12:43:12;31.10;48.30
17066;DHT22;23120;52.336;21.182;2022-07-29T12:45:40;31.10;48.60
17066;DHT22;23120;52.336;21.182;2022-07-29T12:48:08;31.10;48.20
17066;DHT22;23120;52.336;21.182;2022-07-29T12:50:35;31.10;47.30
17066;DHT22;23120;52.336;21.182;2022-07-29T12:53:10;31.00;46.70
17066;DHT22;23120;52.336;21.182;2022-07-29T12:55:43;31.10;47.10
17066;DHT22;23120;52.336;21.182;2022-07-29T12:58:25;31.00;47.10
17066;DHT22;23120;52.336;21.182;2022-07-29T13:01:00;30.90;47.00
17066;DHT22;23120;52.336;21.182;2022-07-29T13:03:27;30.80;45.70
17066;DHT22;23120;52.336;21.182;2022-07-29T13:05:54;30.70;45.40
17066;DHT22;23120;52.336;21.182;2022-07-29T13:08:21;30.60;45.90
17066;DHT22;23120;52.336;21.182;2022-07-29T13:10:49;30.50;45.80
17066;DHT22;23120;52.336;21.182;2022-07-29T13:13:16;30.50;46.20
17066;DHT22;23120;52.336;21.182;2022-07-29T13:15:44;30.50;46.10
17066;DHT22;23120;52.336;21.182;2022-07-29T13:18:28;30.40;46.40
17066;DHT22;23120;52.336;21.182;2022-07-29T13:20:56;30.40;47.10
17066;DHT22;23120;52.336;21.182;2022-07-29T13:23:23;30.30;47.40
17066;DHT22;23120;52.336;21.182;2022-07-29T13:25:51;30.30;46.80
17066;DHT22;23120;52.336;21.182;2022-07-29T13:28:18;30.20;46.80
17066;DHT22;23120;52.336;21.182;2022-07-29T13:30:47;30.10;46.60
17066;DHT22;23120;52.336;21.182;2022-07-29T13:33:14;30.00;47.00
17066;DHT22;23120;52.336;21.182;2022-07-29T13:35:41;30.00;47.50
17066;DHT22;23120;52.336;21.182;2022-07-29T13:38:07;29.90;47.20
17066;DHT22;23120;52.336;21.182;2022-07-29T13:40:34;29.90;46.10
17066;DHT22;23120;52.336;21.182;2022-07-29T13:43:02;29.80;45.90
17066;DHT22;23120;52.336;21.182;2022-07-29T13:45:29;29.80;46.00
17066;DHT22;23120;52.336;21.182;2022-07-29T13:47:56;29.70;46.00
17066;DHT22;23120;52.336;21.182;2022-07-29T13:50:23;29.60;45.70
17066;DHT22;23120;52.336;21.182;2022-07-29T13:52:50;29.60;45.80
17066;DHT22;23120;52.336;21.182;2022-07-29T13:55:16;29.70;46.30
17066;DHT22;23120;52.336;21.182;2022-07-29T13:57:43;29.70;46.70
17066;DHT22;23120;52.336;21.182;2022-07-29T14:00:13;29.90;47.10
17066;DHT22;23120;52.336;21.182;2022-07-29T14:02:40;30.00;47.30
17066;DHT22;23120;52.336;21.182;2022-07-29T14:05:08;30.10;47.40
17066;DHT22;23120;52.336;21.182;2022-07-29T14:07:36;30.20;46.70
17066;DHT22;23120;52.336;21.182;2022-07-29T14:10:05;30.40;46.30
17066;DHT22;23120;52.336;21.182;2022-07-29T14:12:31;30.50;45.10
17066;DHT22;23120;52.336;21.182;2022-07-29T14:14:58;30.50;44.30
17066;DHT22;23120;52.336;21.182;2022-07-29T14:17:26;30.60;44.90
17066;DHT22;23120;52.336;21.182;2022-07-29T14:19:53;30.80;45.50
17066;DHT22;23120;52.336;21.182;2022-07-29T14:22:20;31.00;45.20
17066;DHT22;23120;52.336;21.182;2022-07-29T14:24:47;31.10;43.30
17066;DHT22;23120;52.336;21.182;2022-07-29T14:27:14;31.20;42.90
17066;DHT22;23120;52.336;21.182;2022-07-29T14:29:40;31.30;43.70
17066;DHT22;23120;52.336;21.182;2022-07-29T14:32:08;31.40;44.40
17066;DHT22;23120;52.336;21.182;2022-07-29T14:34:38;31.50;42.90
17066;DHT22;23120;52.336;21.182;2022-07-29T14:37:05;31.60;42.50
17066;DHT22;23120;52.336;21.182;2022-07-29T14:39:33;31.70;43.30
17066;DHT22;23120;52.336;21.182;2022-07-29T14:42:00;31.80;43.70
17066;DHT22;23120;52.336;21.182;2022-07-29T14:44:27;31.90;44.00
17066;DHT22;23120;52.336;21.182;2022-07-29T14:46:56;32.00;43.10
17066;DHT22;23120;52.336;21.182;2022-07-29T14:49:23;32.00;42.30
17066;DHT22;23120;52.336;21.182;2022-07-29T14:51:52;31.90;42.30
17066;DHT22;23120;52.336;21.182;2022-07-29T14:54:18;31.90;42.20
17066;DHT22;23120;52.336;21.182;2022-07-29T14:56:45;31.90;42.20
17066;DHT22;23120;52.336;21.182;2022-07-29T14:59:14;31.80;41.80
17066;DHT22;23120;52.336;21.182;2022-07-29T15:01:41;31.80;42.10
17066;DHT22;23120;52.336;21.182;2022-07-29T15:04:08;31.80;42.70
17066;DHT22;23120;52.336;21.182;2022-07-29T15:06:35;31.80;40.60
17066;DHT22;23120;52.336;21.182;2022-07-29T15:09:04;31.80;41.60
17066;DHT22;23120;52.336;21.182;2022-07-29T15:11:31;31.90;41.80
17066;DHT22;23120;52.336;21.182;2022-07-29T15:13:58;32.00;42.20
17066;DHT22;23120;52.336;21.182;2022-07-29T15:16:25;32.10;42.00
17066;DHT22;23120;52.336;21.182;2022-07-29T15:18:51;32.10;42.00
17066;DHT22;23120;52.336;21.182;2022-07-29T15:21:18;32.20;42.00
17066;DHT22;23120;52.336;21.182;2022-07-29T15:23:45;32.30;41.70
17066;DHT22;23120;52.336;21.182;2022-07-29T15:26:13;32.30;40.50
17066;DHT22;23120;52.336;21.182;2022-07-29T15:28:40;32.40;41.20
17066;DHT22;23120;52.336;21.182;2022-07-29T15:31:07;32.50;41.40
17066;DHT22;23120;52.336;21.182;2022-07-29T15:33:34;32.60;41.70